< Cyclone 197708 1977 Season Cyclone 197710 >
Cyclone 197709 (JACK)
Okinoerabu Typhoon
General InformationDetailed Track InformationTrack Information on Google Maps || ResourceGoogle EarthGE AnimationAtom FeedGeoJSON
Detalied Best Track Wind (Time Zone = UTC)
Year Month Day Hour Lat. Long. Wind (kt) Gust (kt) Direc. of Major Storm Axis Radius of Major Storm Axis (nm) Radius of Minor Storm Axis (nm) Direc. of Major Gale Axis Radius of Major Gale Axis (nm) Radius of Minor Gale Axis (nm) Image
1977 2 13 00 -8.9 99.4 25 -1 symmetric - - symmetric - - --
1977 2 13 03 -9.0 99.1 25 -1 symmetric - - symmetric - - --
1977 2 13 06 -9.1 98.8 25 -1 symmetric - - symmetric - - --
1977 2 13 09 -9.2 98.5 25 -1 symmetric - - symmetric - - --
1977 2 13 12 -9.4 98.2 25 -1 symmetric - - symmetric - - --
1977 2 13 15 -9.5 97.9 25 -1 symmetric - - symmetric - - --
1977 2 13 18 -9.6 97.6 25 -1 symmetric - - symmetric - - --
1977 2 13 21 -9.7 97.3 25 -1 symmetric - - symmetric - - --
1977 2 14 00 -9.9 97.0 30 -1 symmetric - - symmetric - - --
1977 2 14 03 -10.0 96.8 30 -1 symmetric - - symmetric - - --
1977 2 14 06 -10.1 96.5 30 -1 symmetric - - symmetric - - --
1977 2 14 09 -10.2 96.2 30 -1 symmetric - - symmetric - - --
1977 2 14 12 -10.4 96.0 35 -1 symmetric - - symmetric - - --
1977 2 14 15 -10.5 95.7 40 -1 symmetric - - symmetric - - --
1977 2 14 18 -10.6 95.4 45 -1 symmetric - - symmetric - - --
1977 2 14 21 -10.7 95.2 50 -1 symmetric - - symmetric - - --
1977 2 15 00 -10.8 95.0 50 -1 symmetric - - symmetric - - --
1977 2 15 03 -11.0 94.8 50 -1 symmetric - - symmetric - - --
1977 2 15 06 -11.2 94.6 50 -1 symmetric - - symmetric - - --
1977 2 15 09 -11.4 94.4 50 -1 symmetric - - symmetric - - --
1977 2 15 12 -11.6 94.2 50 -1 symmetric - - symmetric - - --
1977 2 15 15 -11.9 94.0 50 -1 symmetric - - symmetric - - --
1977 2 15 18 -12.2 93.8 50 -1 symmetric - - symmetric - - --
1977 2 15 21 -12.4 93.6 50 -1 symmetric - - symmetric - - --
1977 2 16 00 -12.7 93.3 50 -1 symmetric - - symmetric - - --
1977 2 16 03 -13.0 93.0 50 -1 symmetric - - symmetric - - --
1977 2 16 06 -13.3 92.7 50 -1 symmetric - - symmetric - - --
1977 2 16 09 -13.6 92.4 50 -1 symmetric - - symmetric - - --
1977 2 16 12 -13.8 92.1 50 -1 symmetric - - symmetric - - --
1977 2 16 15 -13.8 91.4 50 -1 symmetric - - symmetric - - --
1977 2 16 18 -13.8 90.7 50 -1 symmetric - - symmetric - - --
1977 2 16 21 -13.9 90.0 50 -1 symmetric - - symmetric - - --
1977 2 17 00 -13.9 89.3 50 -1 symmetric - - symmetric - - --
1977 2 17 03 -13.9 89.0 50 -1 symmetric - - symmetric - - --
1977 2 17 06 -13.9 88.8 50 -1 symmetric - - symmetric - - --
1977 2 17 12 -13.9 88.4 50 -1 symmetric - - symmetric - - --
1977 2 17 15 -13.9 88.2 50 -1 symmetric - - symmetric - - --
1977 2 17 18 -13.9 88.0 50 -1 symmetric - - symmetric - - --
1977 2 17 21 -13.8 87.7 50 -1 symmetric - - symmetric - - --
1977 2 18 00 -13.8 87.3 50 -1 symmetric - - symmetric - - --
1977 2 18 03 -13.8 86.8 50 -1 symmetric - - symmetric - - --
1977 2 18 06 -13.8 86.3 50 -1 symmetric - - symmetric - - --
1977 2 18 09 -13.8 85.7 50 -1 symmetric - - symmetric - - --
1977 2 18 12 -13.8 85.2 50 -1 symmetric - - symmetric - - --
1977 2 18 15 -13.8 84.7 50 -1 symmetric - - symmetric - - --
1977 2 18 18 -13.7 84.2 55 -1 symmetric - - symmetric - - --
1977 2 18 21 -13.7 83.7 55 -1 symmetric - - symmetric - - --
1977 2 19 03 -13.6 83.0 55 -1 symmetric - - symmetric - - --
1977 2 19 06 -13.5 82.6 60 -1 symmetric - - symmetric - - --
1977 2 19 09 -13.4 82.2 60 -1 symmetric - - symmetric - - --
1977 2 19 12 -13.3 81.8 65 -1 symmetric - - symmetric - - --
1977 2 19 15 -13.2 81.4 70 -1 symmetric - - symmetric - - --
1977 2 19 18 -13.1 81.0 70 -1 symmetric - - symmetric - - --
1977 2 19 21 -13.0 80.5 70 -1 symmetric - - symmetric - - --
1977 2 20 00 -12.9 80.0 70 -1 symmetric - - symmetric - - --
< Cyclone 197708 1977 Season Cyclone 197710 >

Help